Time;durP1;ratioP1;P1;durP2;ratioP2;P2;SDS_P1;SDS_P2;PMS_P1;PMS_P2;Temp;Humidity;BMP_temperature;BMP_pressure;BME280_temperature;BME280_humidity;BME280_pressure;Samples;Min_cycle;Max_cycle;Signal;HPM_P1;HPM_P2
2021/01/10 00:09:27;;;;;;;15.93;7.70;;;-1.00;99.90;;;;;;20871691;28;20068;-77
2021/01/10 00:19:28;;;;;;;17.67;8.20;;;-0.90;99.90;;;;;;20868902;28;20550;-77
2021/01/10 00:29:29;;;;;;;16.70;8.43;;;-0.90;99.90;;;;;;20916816;28;20552;-76
2021/01/10 00:39:30;;;;;;;17.42;8.68;;;-0.90;99.90;;;;;;20896159;28;20043;-76
2021/01/10 00:49:31;;;;;;;17.98;8.00;;;-0.90;99.90;;;;;;20898570;28;20033;-77
2021/01/10 00:59:33;;;;;;;18.63;8.57;;;-0.90;99.90;;;;;;20893726;28;20025;-77
2021/01/10 01:09:36;;;;;;;17.98;8.68;;;-0.90;99.90;;;;;;20891262;28;20033;-76
2021/01/10 01:19:37;;;;;;;17.90;8.10;;;-0.90;99.90;;;;;;20889520;28;20674;-77
2021/01/10 01:29:38;;;;;;;15.05;7.20;;;-0.90;99.90;;;;;;20880325;28;20406;-77
2021/01/10 01:39:38;;;;;;;15.45;7.68;;;-0.90;99.90;;;;;;20909003;28;20430;-77
2021/01/10 01:49:40;;;;;;;16.65;7.40;;;-0.90;99.90;;;;;;20895745;28;20111;-77
2021/01/10 01:59:41;;;;;;;14.95;7.80;;;-0.90;99.90;;;;;;20800234;28;20040;-76
2021/01/10 02:09:47;;;;;;;15.57;6.88;;;-0.90;99.90;;;;;;20809267;28;20030;-76
2021/01/10 02:20:09;;;;;;;15.88;8.32;;;-1.00;99.90;;;;;;20791794;28;20044;-77
2021/01/10 02:30:12;;;;;;;16.27;8.38;;;-0.90;99.90;;;;;;20853584;28;20029;-76
2021/01/10 02:40:22;;;;;;;16.08;7.72;;;-1.00;99.90;;;;;;20889212;28;20106;-76
2021/01/10 02:50:24;;;;;;;18.50;8.10;;;-1.00;99.90;;;;;;20852219;28;20040;-76
2021/01/10 03:00:28;;;;;;;14.65;7.72;;;-1.10;99.90;;;;;;20858737;28;20029;-76
2021/01/10 03:10:29;;;;;;;17.17;7.97;;;-1.20;99.90;;;;;;20878501;28;20116;-76
2021/01/10 03:20:30;;;;;;;16.98;8.48;;;-1.20;99.90;;;;;;20851983;28;20119;-76
2021/01/10 03:30:31;;;;;;;14.98;7.40;;;-1.20;99.90;;;;;;20827240;28;20032;-76
2021/01/10 03:40:32;;;;;;;16.90;8.85;;;-1.20;99.90;;;;;;20870164;28;20046;-77
2021/01/10 03:50:33;;;;;;;14.65;8.02;;;-1.20;99.90;;;;;;20862578;28;20033;-77
2021/01/10 04:00:34;;;;;;;13.93;7.57;;;-1.20;99.90;;;;;;20918533;28;20040;-77
2021/01/10 04:10:35;;;;;;;18.33;8.02;;;-1.20;99.90;;;;;;20920871;28;20055;-77
2021/01/10 04:20:35;;;;;;;17.30;8.20;;;-1.30;99.90;;;;;;20918054;28;20037;-77
2021/01/10 04:30:36;;;;;;;17.33;7.80;;;-1.30;99.90;;;;;;20901958;28;20639;-77
2021/01/10 04:40:37;;;;;;;13.95;8.05;;;-1.30;99.90;;;;;;20916561;28;20052;-77
2021/01/10 04:50:39;;;;;;;19.95;8.15;;;-1.30;99.90;;;;;;20883413;28;20471;-77
2021/01/10 05:00:40;;;;;;;15.00;8.40;;;-1.30;99.90;;;;;;20899927;28;20630;-77
2021/01/10 05:10:41;;;;;;;15.48;7.80;;;-1.30;99.90;;;;;;20917973;28;20029;-77
2021/01/10 05:20:46;;;;;;;19.45;8.55;;;-1.30;99.90;;;;;;20930821;28;20024;-77
2021/01/10 05:30:46;;;;;;;19.42;7.78;;;-1.30;99.90;;;;;;21014251;28;20546;-77
2021/01/10 05:40:47;;;;;;;15.43;7.82;;;-1.30;99.90;;;;;;21016617;28;20079;-77
2021/01/10 05:50:50;;;;;;;15.20;8.13;;;-1.30;99.90;;;;;;20996599;28;20033;-77
2021/01/10 06:00:52;;;;;;;16.40;7.13;;;-1.20;99.90;;;;;;20991185;28;20028;-77
2021/01/10 06:10:53;;;;;;;14.90;7.57;;;-1.30;99.90;;;;;;20931768;28;20033;-76
2021/01/10 06:20:58;;;;;;;15.48;7.10;;;-1.30;99.90;;;;;;20930572;28;20040;-77
2021/01/10 06:31:01;;;;;;;18.15;7.05;;;-1.30;99.90;;;;;;20928128;28;20628;-77
2021/01/10 06:41:30;;;;;;;19.13;8.27;;;-1.30;99.90;;;;;;20907574;28;20035;-76
2021/01/10 06:51:32;;;;;;;17.88;7.97;;;-1.40;99.90;;;;;;20924895;28;20103;-77
2021/01/10 07:01:48;;;;;;;15.20;8.15;;;-1.30;99.90;;;;;;20934845;28;20485;-77
2021/01/10 07:11:50;;;;;;;15.23;7.70;;;-1.30;99.90;;;;;;20973546;28;20398;-77
2021/01/10 07:21:51;;;;;;;18.27;8.43;;;-1.30;99.90;;;;;;21005213;28;20032;-76
2021/01/10 07:31:58;;;;;;;16.05;7.13;;;-1.40;99.90;;;;;;20994220;28;20037;-76
2021/01/10 07:42:11;;;;;;;13.43;6.85;;;-1.40;99.90;;;;;;20992762;28;20123;-76
2021/01/10 07:52:12;;;;;;;15.18;7.72;;;-1.40;99.90;;;;;;20992573;28;20407;-76
2021/01/10 08:02:13;;;;;;;14.20;5.60;;;-1.40;99.90;;;;;;20990692;28;20037;-76
2021/01/10 08:12:14;;;;;;;17.75;7.55;;;-1.40;99.90;;;;;;20971933;28;20432;-75
2021/01/10 08:22:15;;;;;;;14.35;6.93;;;-1.40;99.90;;;;;;20989750;28;20712;-76
2021/01/10 08:32:16;;;;;;;15.13;6.93;;;-1.30;99.90;;;;;;20989233;28;20390;-76
2021/01/10 08:42:17;;;;;;;14.32;7.38;;;-1.30;99.90;;;;;;20989592;28;20078;-76
2021/01/10 08:52:18;;;;;;;14.52;7.72;;;-1.10;99.90;;;;;;20995541;28;20028;-76
2021/01/10 09:02:19;;;;;;;15.05;7.05;;;-1.10;99.90;;;;;;20987598;28;20048;-77
2021/01/10 09:12:22;;;;;;;12.13;5.78;;;-0.90;99.90;;;;;;20984660;28;20036;-77
2021/01/10 09:22:29;;;;;;;12.23;6.03;;;-0.80;99.90;;;;;;20973967;28;20045;-77
2021/01/10 09:32:31;;;;;;;20.50;7.80;;;-0.70;99.90;;;;;;20931202;28;20064;-77
2021/01/10 09:42:46;;;;;;;15.60;7.72;;;-0.70;99.90;;;;;;20928223;28;20047;-77
2021/01/10 09:52:53;;;;;;;14.45;6.97;;;0.00;99.90;;;;;;20916619;28;20357;-77
2021/01/10 10:02:55;;;;;;;14.43;7.50;;;0.70;99.90;;;;;;20954525;28;20028;-76
2021/01/10 10:13:02;;;;;;;14.13;7.55;;;2.80;99.90;;;;;;20987807;28;20479;-77
2021/01/10 10:23:21;;;;;;;11.00;6.53;;;4.00;99.90;;;;;;20998037;28;20048;-76
2021/01/10 10:33:22;;;;;;;13.95;7.45;;;4.60;99.90;;;;;;20996151;28;20036;-76
2021/01/10 10:43:23;;;;;;;17.70;7.53;;;4.50;99.90;;;;;;20995860;28;20514;-76
2021/01/10 10:53:24;;;;;;;12.65;6.47;;;4.60;99.90;;;;;;20994553;28;20056;-76
2021/01/10 11:03:25;;;;;;;14.60;7.77;;;4.60;99.90;;;;;;20976001;28;20074;-76
2021/01/10 11:13:25;;;;;;;8.50;5.27;;;4.90;99.90;;;;;;20995401;28;20078;-78
2021/01/10 11:23:26;;;;;;;13.33;7.40;;;4.60;99.90;;;;;;20905505;28;20021;-77
2021/01/10 11:33:27;;;;;;;14.00;7.10;;;5.10;99.90;;;;;;20935597;28;20048;-78
2021/01/10 11:43:28;;;;;;;13.73;7.73;;;5.40;99.90;;;;;;20829340;28;20045;-76
2021/01/10 11:53:29;;;;;;;14.13;7.27;;;4.90;99.90;;;;;;20852837;28;20045;-77
2021/01/10 12:03:30;;;;;;;11.63;6.70;;;5.40;99.90;;;;;;20898983;28;20503;-77
2021/01/10 12:13:31;;;;;;;12.70;6.13;;;5.90;99.90;;;;;;20952779;28;20372;-77
2021/01/10 12:23:32;;;;;;;10.93;4.90;;;5.20;99.90;;;;;;20970102;28;20115;-77
2021/01/10 12:33:34;;;;;;;11.97;6.83;;;4.90;99.90;;;;;;20986328;28;20509;-77
2021/01/10 12:43:35;;;;;;;14.55;6.70;;;5.20;99.90;;;;;;20921527;28;20033;-77
2021/01/10 12:53:37;;;;;;;10.43;6.30;;;5.80;99.90;;;;;;20901900;28;20625;-78
2021/01/10 13:03:38;;;;;;;12.25;5.90;;;5.80;99.90;;;;;;20873518;28;20082;-78
2021/01/10 13:13:41;;;;;;;9.40;5.43;;;5.40;99.90;;;;;;20926840;28;20446;-78
2021/01/10 13:23:43;;;;;;;9.05;5.05;;;4.90;99.90;;;;;;20883337;28;20506;-78
2021/01/10 13:33:45;;;;;;;10.45;4.88;;;5.30;99.90;;;;;;20865351;28;20107;-77
2021/01/10 13:43:46;;;;;;;13.23;5.50;;;5.50;99.90;;;;;;20822714;28;20041;-78
2021/01/10 13:53:48;;;;;;;;;;;4.90;99.90;;;;;;20803086;28;20033;-78
2021/01/10 14:03:48;;;;;;;10.30;4.97;;;4.50;99.90;;;;;;20868208;28;19916;-78
2021/01/10 14:13:50;;;;;;;7.47;3.87;;;4.30;99.90;;;;;;20984802;28;20472;-78
2021/01/10 14:24:13;;;;;;;8.15;4.45;;;4.70;99.90;;;;;;20982230;28;20037;-78
2021/01/10 14:34:18;;;;;;;10.13;5.15;;;4.10;99.90;;;;;;20853669;28;20032;-75
2021/01/10 14:44:22;;;;;;;8.02;3.92;;;4.80;99.90;;;;;;20872677;28;20135;-76
2021/01/10 14:54:23;;;;;;;10.05;5.50;;;4.30;99.90;;;;;;20872394;28;20453;-76
2021/01/10 15:04:24;;;;;;;8.97;4.70;;;5.00;99.90;;;;;;20938734;28;20037;-77
2021/01/10 15:14:25;;;;;;;7.57;4.07;;;5.00;99.90;;;;;;20884719;28;20132;-77
2021/01/10 15:24:25;;;;;;;6.53;3.80;;;4.10;99.90;;;;;;20882513;28;20060;-77
2021/01/10 15:34:27;;;;;;;7.40;3.95;;;2.80;99.90;;;;;;20903799;28;20056;-76
2021/01/10 15:44:28;;;;;;;8.88;4.28;;;1.80;99.90;;;;;;20890067;28;20033;-76
2021/01/10 15:54:29;;;;;;;;;;;1.00;99.90;;;;;;20892220;28;20178;-77
2021/01/10 16:04:29;;;;;;;7.82;4.78;;;0.80;99.90;;;;;;20922971;28;19909;-77
2021/01/10 16:14:30;;;;;;;;;;;0.60;99.90;;;;;;20908504;28;20025;-77
2021/01/10 16:24:31;;;;;;;9.95;5.13;;;0.40;99.90;;;;;;20907847;28;19915;-76
2021/01/10 16:34:32;;;;;;;10.70;5.85;;;0.30;99.90;;;;;;20911622;28;20115;-77
2021/01/10 16:44:33;;;;;;;12.35;6.53;;;0.10;99.90;;;;;;20936566;28;20112;-77
2021/01/10 16:54:34;;;;;;;15.77;8.93;;;0.10;99.90;;;;;;20898362;28;20106;-78
2021/01/10 17:04:34;;;;;;;;;;;0.00;99.90;;;;;;20922735;28;20079;-77
2021/01/10 17:14:35;;;;;;;12.57;6.10;;;-0.40;99.90;;;;;;20882481;28;19970;-77
2021/01/10 17:24:36;;;;;;;16.60;7.13;;;-0.50;99.90;;;;;;20920162;28;20460;-76
2021/01/10 17:34:40;;;;;;;11.20;6.03;;;-0.60;99.90;;;;;;20897128;28;20025;-76
2021/01/10 17:44:41;;;;;;;19.73;9.25;;;-0.80;99.90;;;;;;20918183;28;20037;-76
2021/01/10 17:54:42;;;;;;;16.35;7.90;;;-0.70;99.90;;;;;;20933076;28;20033;-77
2021/01/10 18:04:43;;;;;;;16.95;8.02;;;-0.90;99.90;;;;;;20916602;28;20040;-76
2021/01/10 18:14:46;;;;;;;16.52;7.40;;;-0.90;99.90;;;;;;20878549;28;20514;-76
2021/01/10 18:24:47;;;;;;;17.30;8.40;;;-1.00;99.90;;;;;;20867556;28;20041;-77
2021/01/10 18:34:48;;;;;;;24.50;10.25;;;-1.10;99.90;;;;;;20896120;28;20468;-77
2021/01/10 18:44:48;;;;;;;20.55;9.32;;;-1.10;99.90;;;;;;20874225;28;20064;-76
2021/01/10 18:54:49;;;;;;;17.55;9.07;;;-1.00;99.90;;;;;;20876426;28;20040;-78
2021/01/10 19:04:50;;;;;;;22.00;10.52;;;-1.10;99.90;;;;;;21038783;22;20688;-80
2021/01/10 19:14:51;;;;;;;24.17;11.00;;;-1.20;99.90;;;;;;21049401;28;20265;-80
2021/01/10 19:24:52;;;;;;;15.40;7.75;;;-1.30;99.90;;;;;;21047295;28;20047;-83
2021/01/10 19:34:53;;;;;;;15.55;8.07;;;-1.40;99.90;;;;;;21023422;28;20089;-78
2021/01/10 19:44:54;;;;;;;15.90;7.47;;;-1.40;99.90;;;;;;21060604;28;20032;-77
2021/01/10 19:54:55;;;;;;;19.17;9.02;;;-1.40;99.90;;;;;;21044109;28;20684;-81
2021/01/10 20:04:56;;;;;;;24.15;9.85;;;-1.30;99.90;;;;;;21062237;28;20522;-81
2021/01/10 20:14:57;;;;;;;18.73;9.68;;;-1.30;99.90;;;;;;21026668;28;20047;-80
2021/01/10 20:24:58;;;;;;;20.40;8.23;;;-1.30;99.90;;;;;;21044246;28;20035;-82
2021/01/10 20:35:00;;;;;;;15.80;7.43;;;-1.20;99.90;;;;;;21025461;28;20413;-79
2021/01/10 20:45:00;;;;;;;21.73;8.45;;;-1.30;99.90;;;;;;21059712;28;20043;-80
2021/01/10 20:55:02;;;;;;;15.27;7.57;;;-1.30;99.90;;;;;;21052977;28;20069;-79
2021/01/10 21:05:04;;;;;;;18.38;8.95;;;-1.10;99.90;;;;;;21074500;28;20603;-81
2021/01/10 21:15:06;;;;;;;21.27;9.20;;;-1.10;99.90;;;;;;21039331;28;20133;-80
2021/01/10 21:25:10;;;;;;;16.25;7.40;;;-1.20;99.90;;;;;;21043513;28;20035;-80
2021/01/10 21:35:11;;;;;;;16.67;8.32;;;-1.20;99.90;;;;;;21057267;28;20465;-77
2021/01/10 21:45:12;;;;;;;16.02;8.25;;;-1.10;99.90;;;;;;21037805;28;20067;-77
2021/01/10 21:55:14;;;;;;;18.08;8.40;;;-1.10;99.90;;;;;;21040826;28;20047;-80
2021/01/10 22:05:15;;;;;;;22.52;10.15;;;-1.20;99.90;;;;;;21036515;28;20136;-79
2021/01/10 22:15:16;;;;;;;21.98;10.05;;;-1.20;99.90;;;;;;21052210;28;20063;-79
2021/01/10 22:25:17;;;;;;;16.25;8.68;;;-1.20;99.90;;;;;;21035305;28;20661;-79
2021/01/10 22:35:18;;;;;;;16.33;8.32;;;-1.20;99.90;;;;;;21051543;28;20058;-78
2021/01/10 22:45:19;;;;;;;26.40;10.57;;;-1.30;99.90;;;;;;21047265;28;20098;-78
2021/01/10 22:55:26;;;;;;;18.77;9.13;;;-1.30;99.90;;;;;;21047052;28;20028;-79
2021/01/10 23:05:27;;;;;;;21.88;9.32;;;-1.30;99.90;;;;;;21080561;28;20126;-80
2021/01/10 23:15:28;;;;;;;22.90;10.50;;;-1.30;99.90;;;;;;21065313;28;20028;-78
2021/01/10 23:25:29;;;;;;;21.13;9.60;;;-1.40;99.90;;;;;;21067652;28;20036;-79
2021/01/10 23:35:30;;;;;;;21.30;9.63;;;-1.40;99.90;;;;;;21068233;28;20116;-81
2021/01/10 23:45:32;;;;;;;17.90;9.00;;;-1.50;99.90;;;;;;21066943;28;20028;-79
2021/01/10 23:55:33;;;;;;;19.85;9.27;;;-1.40;99.90;;;;;;21065585;28;20035;-80
